Time;durP1;ratioP1;P1;durP2;ratioP2;P2;SDS_P1;SDS_P2;PMS_P1;PMS_P2;Temp;Humidity;BMP_temperature;BMP_pressure;BME280_temperature;BME280_humidity;BME280_pressure;Samples;Min_cycle;Max_cycle;Signal;HPM_P1;HPM_P2
2023/11/16 00:00:36;;;;;;;11.07;2.80;;;;;;;;;;4927167;29;20475;-73
2023/11/16 00:03:03;;;;;;;10.80;3.67;;;;;;;;;;4928107;29;20103;-68
2023/11/16 00:05:28;;;;;;;6.87;2.90;;;;;;;;;;4930101;29;20022;-72
2023/11/16 00:07:55;;;;;;;10.20;3.63;;;;;;;;;;4925669;29;20485;-68
2023/11/16 00:10:20;;;;;;;13.53;3.43;;;;;;;;;;4927554;29;20027;-69
2023/11/16 00:12:45;;;;;;;11.50;2.90;;;;;;;;;;4927694;29;20035;-67
2023/11/16 00:15:11;;;;;;;11.17;3.10;;;;;;;;;;4928378;29;20079;-68
2023/11/16 00:17:37;;;;;;;10.73;2.87;;;;;;;;;;4928101;29;20031;-68
2023/11/16 00:20:07;;;;;;;13.00;3.30;;;;;;;;;;4928018;29;20454;-69
2023/11/16 00:22:32;;;;;;;11.83;3.90;;;;;;;;;;4930326;29;20032;-68
2023/11/16 00:24:58;;;;;;;14.33;3.20;;;;;;;;;;4926984;29;20046;-67
2023/11/16 00:27:26;;;;;;;9.90;3.07;;;;;;;;;;4927237;29;20082;-72
2023/11/16 00:29:54;;;;;;;13.47;3.60;;;;;;;;;;4926936;29;20039;-67
2023/11/16 00:32:19;;;;;;;10.73;2.70;;;;;;;;;;4927490;29;20464;-72
2023/11/16 00:34:44;;;;;;;10.83;3.60;;;;;;;;;;4927385;29;20024;-67
2023/11/16 00:37:10;;;;;;;9.33;3.20;;;;;;;;;;4927718;29;20090;-69
2023/11/16 00:39:36;;;;;;;9.27;3.80;;;;;;;;;;4927117;29;20366;-70
2023/11/16 00:42:02;;;;;;;11.33;3.90;;;;;;;;;;4927288;29;20191;-67
2023/11/16 00:44:27;;;;;;;8.47;3.13;;;;;;;;;;4927548;29;20032;-71
2023/11/16 00:46:53;;;;;;;7.53;3.30;;;;;;;;;;4927717;29;20175;-68
2023/11/16 00:49:18;;;;;;;11.77;3.40;;;;;;;;;;4927520;29;20472;-67
2023/11/16 00:51:44;;;;;;;7.70;3.80;;;;;;;;;;4927144;29;20035;-69
2023/11/16 00:54:12;;;;;;;10.40;3.23;;;;;;;;;;4927063;29;20039;-67
2023/11/16 00:56:37;;;;;;;8.47;3.17;;;;;;;;;;4927143;29;20114;-71
2023/11/16 00:59:05;;;;;;;11.63;3.33;;;;;;;;;;4925911;29;20485;-67
2023/11/16 01:01:30;;;;;;;10.43;3.90;;;;;;;;;;4927161;29;20101;-70
2023/11/16 01:03:57;;;;;;;11.07;3.00;;;;;;;;;;4927293;29;20288;-67
2023/11/16 01:06:23;;;;;;;10.43;3.63;;;;;;;;;;4927340;29;20016;-70
2023/11/16 01:08:48;;;;;;;10.27;3.50;;;;;;;;;;4927117;29;20023;-69
2023/11/16 01:11:15;;;;;;;8.40;2.97;;;;;;;;;;4926823;29;20098;-69
2023/11/16 01:13:41;;;;;;;8.00;2.67;;;;;;;;;;4926304;29;20187;-72
2023/11/16 01:16:14;;;;;;;8.20;3.20;;;;;;;;;;4926599;29;20461;-74
2023/11/16 01:18:46;;;;;;;10.03;3.47;;;;;;;;;;4926437;29;20172;-69
2023/11/16 01:21:15;;;;;;;13.00;3.03;;;;;;;;;;4925572;29;20449;-71
2023/11/16 01:23:41;;;;;;;9.20;2.13;;;;;;;;;;4925922;29;20171;-69
2023/11/16 01:26:14;;;;;;;4.10;1.70;;;;;;;;;;4926435;29;20376;-68
2023/11/16 01:28:45;;;;;;;9.27;2.47;;;;;;;;;;4926884;29;20011;-69
2023/11/16 01:31:10;;;;;;;6.47;1.77;;;;;;;;;;4925536;29;20028;-66
2023/11/16 01:33:36;;;;;;;6.87;1.27;;;;;;;;;;4926135;29;20024;-67
2023/11/16 01:36:01;;;;;;;10.90;1.70;;;;;;;;;;4927962;29;20501;-71
2023/11/16 01:38:26;;;;;;;7.83;1.43;;;;;;;;;;4929682;29;20476;-67
2023/11/16 01:40:52;;;;;;;4.30;1.40;;;;;;;;;;4924920;29;20291;-73
2023/11/16 01:43:17;;;;;;;4.47;1.30;;;;;;;;;;4926743;29;20042;-70
2023/11/16 01:45:43;;;;;;;8.93;1.50;;;;;;;;;;4926253;29;20398;-68
2023/11/16 01:48:09;;;;;;;6.37;1.33;;;;;;;;;;4926533;29;20039;-68
2023/11/16 01:50:36;;;;;;;4.00;1.30;;;;;;;;;;4926891;29;20496;-70
2023/11/16 01:53:09;;;;;;;7.13;1.00;;;;;;;;;;4926303;29;20032;-70
2023/11/16 01:55:36;;;;;;;5.93;1.20;;;;;;;;;;4929786;29;20421;-68
2023/11/16 01:58:05;;;;;;;3.07;0.97;;;;;;;;;;4926016;29;20492;-68
2023/11/16 02:00:31;;;;;;;5.03;1.00;;;;;;;;;;4926538;29;20016;-70
2023/11/16 02:02:59;;;;;;;7.47;1.67;;;;;;;;;;4926748;29;20046;-67
2023/11/16 02:05:24;;;;;;;4.30;0.90;;;;;;;;;;4925749;29;20036;-69
2023/11/16 02:07:50;;;;;;;5.73;1.07;;;;;;;;;;4926469;29;20366;-69
2023/11/16 02:10:15;;;;;;;4.13;1.00;;;;;;;;;;4926808;29;20465;-70
2023/11/16 02:12:50;;;;;;;6.23;0.87;;;;;;;;;;4931258;29;20476;-68
2023/11/16 02:15:15;;;;;;;5.23;1.00;;;;;;;;;;4928762;29;20015;-71
2023/11/16 02:17:40;;;;;;;4.93;1.00;;;;;;;;;;4929866;29;20054;-67
2023/11/16 02:20:07;;;;;;;4.93;1.30;;;;;;;;;;4928711;29;20078;-71
2023/11/16 02:22:32;;;;;;;3.67;1.27;;;;;;;;;;4929758;29;20098;-70
2023/11/16 02:24:58;;;;;;;7.50;1.03;;;;;;;;;;4926678;29;20575;-70
2023/11/16 02:27:23;;;;;;;5.70;1.20;;;;;;;;;;4929986;29;20024;-69
2023/11/16 02:29:50;;;;;;;3.07;1.10;;;;;;;;;;4929515;29;20031;-67
2023/11/16 02:32:17;;;;;;;6.80;1.10;;;;;;;;;;4929706;29;20540;-70
2023/11/16 02:34:43;;;;;;;8.37;1.27;;;;;;;;;;4929662;29;20027;-68
2023/11/16 02:37:08;;;;;;;6.27;1.30;;;;;;;;;;4929816;29;20039;-71
2023/11/16 02:39:33;;;;;;;6.93;1.87;;;;;;;;;;4929786;29;20038;-68
2023/11/16 02:41:59;;;;;;;6.27;1.20;;;;;;;;;;4929324;29;20548;-68
2023/11/16 02:44:24;;;;;;;4.47;1.17;;;;;;;;;;4929729;29;20043;-72
2023/11/16 02:46:49;;;;;;;5.67;1.33;;;;;;;;;;4929066;29;20476;-68
2023/11/16 02:49:14;;;;;;;5.03;1.13;;;;;;;;;;4929436;29;20496;-72
2023/11/16 02:51:40;;;;;;;18.67;1.20;;;;;;;;;;4929445;29;20418;-69
2023/11/16 02:54:06;;;;;;;3.70;0.97;;;;;;;;;;4929250;29;20024;-70
2023/11/16 02:56:32;;;;;;;5.07;0.90;;;;;;;;;;4929362;29;20031;-64
2023/11/16 02:58:57;;;;;;;12.93;1.60;;;;;;;;;;4928808;29;20090;-63
2023/11/16 03:01:22;;;;;;;3.37;1.00;;;;;;;;;;4928796;29;20461;-63
2023/11/16 03:03:47;;;;;;;4.67;1.40;;;;;;;;;;4929378;29;20401;-64
2023/11/16 03:06:13;;;;;;;6.30;1.07;;;;;;;;;;4929067;29;20122;-64
2023/11/16 03:08:39;;;;;;;7.23;1.20;;;;;;;;;;4928637;29;20263;-63
2023/11/16 03:11:05;;;;;;;5.70;1.20;;;;;;;;;;4925375;29;20016;-66
2023/11/16 03:13:30;;;;;;;5.37;1.37;;;;;;;;;;4927963;29;20445;-65
2023/11/16 03:15:56;;;;;;;7.37;1.20;;;;;;;;;;4928743;29;20023;-64
2023/11/16 03:18:21;;;;;;;5.57;1.53;;;;;;;;;;4928644;29;20028;-65
2023/11/16 03:20:47;;;;;;;9.13;2.10;;;;;;;;;;4928688;29;20027;-64
2023/11/16 03:23:13;;;;;;;11.37;1.60;;;;;;;;;;4927971;29;20023;-65
2023/11/16 03:25:39;;;;;;;10.57;1.70;;;;;;;;;;4928938;29;20421;-64
2023/11/16 03:28:05;;;;;;;8.17;1.80;;;;;;;;;;4928505;29;20079;-64
2023/11/16 03:30:30;;;;;;;8.17;2.07;;;;;;;;;;4931735;29;20027;-67
2023/11/16 03:32:56;;;;;;;5.63;1.40;;;;;;;;;;4930135;29;20058;-64
2023/11/16 03:35:21;;;;;;;7.43;1.50;;;;;;;;;;4928773;29;20034;-65
2023/11/16 03:37:46;;;;;;;9.27;1.83;;;;;;;;;;4928450;29;20027;-64
2023/11/16 03:40:12;;;;;;;6.20;1.50;;;;;;;;;;4928119;29;20039;-64
2023/11/16 03:42:37;;;;;;;9.37;2.10;;;;;;;;;;4928183;29;20063;-67
2023/11/16 03:45:03;;;;;;;6.27;1.50;;;;;;;;;;4928383;29;20039;-64
2023/11/16 03:47:29;;;;;;;10.07;1.70;;;;;;;;;;4928391;29;20622;-64
2023/11/16 03:49:54;;;;;;;9.60;1.70;;;;;;;;;;4927919;29;20111;-66
2023/11/16 03:52:19;;;;;;;12.83;1.70;;;;;;;;;;4927964;29;20066;-66
2023/11/16 03:54:45;;;;;;;10.53;1.57;;;;;;;;;;4927954;29;20391;-66
2023/11/16 03:57:11;;;;;;;7.77;1.73;;;;;;;;;;4928041;29;20499;-65
2023/11/16 03:59:36;;;;;;;9.97;2.43;;;;;;;;;;4927863;29;20047;-63
2023/11/16 04:02:04;;;;;;;13.27;1.70;;;;;;;;;;4927504;29;20043;-65
2023/11/16 04:04:29;;;;;;;9.60;1.70;;;;;;;;;;4927538;29;20512;-66
2023/11/16 04:06:55;;;;;;;9.40;1.50;;;;;;;;;;4929001;29;20079;-64
2023/11/16 04:09:24;;;;;;;6.83;1.50;;;;;;;;;;4927486;29;20042;-64
2023/11/16 04:11:49;;;;;;;12.73;1.40;;;;;;;;;;4927532;29;20074;-64
2023/11/16 04:14:15;;;;;;;10.90;1.40;;;;;;;;;;4927573;29;20059;-63
2023/11/16 04:16:41;;;;;;;8.87;1.40;;;;;;;;;;4928206;29;20027;-64
2023/11/16 04:19:07;;;;;;;5.83;1.10;;;;;;;;;;4927798;29;20421;-64
2023/11/16 04:21:36;;;;;;;8.40;1.20;;;;;;;;;;4929391;29;20027;-64
2023/11/16 04:24:05;;;;;;;7.90;1.20;;;;;;;;;;4927067;29;20280;-63
2023/11/16 04:26:36;;;;;;;7.97;1.20;;;;;;;;;;4927877;29;20380;-64
2023/11/16 04:29:04;;;;;;;7.80;1.30;;;;;;;;;;4927715;29;20063;-64
2023/11/16 04:31:29;;;;;;;10.70;1.10;;;;;;;;;;4926804;29;20556;-65
2023/11/16 04:33:54;;;;;;;7.77;1.03;;;;;;;;;;4926929;29;20106;-63
2023/11/16 04:36:24;;;;;;;5.07;1.00;;;;;;;;;;4927624;29;20217;-64
2023/11/16 04:38:52;;;;;;;7.97;1.20;;;;;;;;;;4927259;29;20421;-64
2023/11/16 04:41:17;;;;;;;15.80;1.30;;;;;;;;;;4926867;29;20043;-64
2023/11/16 04:43:44;;;;;;;10.23;1.50;;;;;;;;;;4927271;29;20032;-65
2023/11/16 04:46:11;;;;;;;7.23;1.03;;;;;;;;;;4927837;29;20312;-64
2023/11/16 04:48:37;;;;;;;12.60;1.30;;;;;;;;;;4927404;29;20039;-64
2023/11/16 04:51:03;;;;;;;9.60;1.40;;;;;;;;;;4927159;29;20046;-63
2023/11/16 04:53:28;;;;;;;10.57;1.20;;;;;;;;;;4927118;29;20553;-63
2023/11/16 04:55:54;;;;;;;12.00;1.47;;;;;;;;;;4927101;29;20448;-64
2023/11/16 04:58:19;;;;;;;10.17;1.20;;;;;;;;;;4922995;29;20028;-64
2023/11/16 05:00:45;;;;;;;6.33;1.30;;;;;;;;;;4926906;29;20055;-65
2023/11/16 05:03:10;;;;;;;9.13;1.23;;;;;;;;;;4924939;29;20109;-63
2023/11/16 05:05:35;;;;;;;7.47;1.27;;;;;;;;;;4925987;29;20607;-63
2023/11/16 05:08:01;;;;;;;10.90;1.00;;;;;;;;;;4926390;29;20043;-65
2023/11/16 05:10:26;;;;;;;5.87;1.07;;;;;;;;;;4927002;29;20356;-65
2023/11/16 05:12:52;;;;;;;7.73;1.10;;;;;;;;;;4926585;29;20031;-63
2023/11/16 05:15:17;;;;;;;8.90;1.40;;;;;;;;;;4926002;29;20050;-64
2023/11/16 05:17:43;;;;;;;10.77;1.53;;;;;;;;;;4927245;29;20473;-67
2023/11/16 05:20:09;;;;;;;8.20;1.37;;;;;;;;;;4927112;29;20357;-67
2023/11/16 05:22:34;;;;;;;7.83;1.10;;;;;;;;;;4926936;29;20427;-68
2023/11/16 05:24:59;;;;;;;9.30;1.10;;;;;;;;;;4906602;29;20028;-68
2023/11/16 05:27:27;;;;;;;6.97;1.30;;;;;;;;;;4926310;29;20091;-68
2023/11/16 05:29:52;;;;;;;8.73;1.20;;;;;;;;;;4927710;29;20023;-67
2023/11/16 05:32:17;;;;;;;8.43;1.20;;;;;;;;;;4926225;29;20024;-68
2023/11/16 05:34:42;;;;;;;8.47;1.07;;;;;;;;;;4926791;29;20027;-67
2023/11/16 05:37:08;;;;;;;9.17;1.30;;;;;;;;;;4926720;29;20039;-68
2023/11/16 05:39:33;;;;;;;11.40;1.70;;;;;;;;;;4925654;29;20023;-67
2023/11/16 05:41:59;;;;;;;11.50;1.60;;;;;;;;;;4928412;29;20052;-68
2023/11/16 05:44:24;;;;;;;12.47;1.90;;;;;;;;;;4926384;29;20035;-68
2023/11/16 05:46:49;;;;;;;12.80;1.60;;;;;;;;;;4930051;29;20492;-69
2023/11/16 05:49:17;;;;;;;14.00;1.93;;;;;;;;;;4930497;29;20019;-68
2023/11/16 05:51:43;;;;;;;9.60;1.60;;;;;;;;;;4929825;29;20028;-67
2023/11/16 05:54:08;;;;;;;9.90;1.60;;;;;;;;;;4931003;29;20031;-67
2023/11/16 05:56:40;;;;;;;6.47;1.00;;;;;;;;;;4929842;29;20400;-68
2023/11/16 05:59:08;;;;;;;9.90;1.70;;;;;;;;;;4930291;29;20685;-68
2023/11/16 06:01:33;;;;;;;8.27;1.77;;;;;;;;;;4926179;29;20473;-67
2023/11/16 06:03:58;;;;;;;10.10;2.13;;;;;;;;;;4935069;29;20118;-68
2023/11/16 06:06:24;;;;;;;14.00;3.87;;;;;;;;;;4929631;29;20047;-68
2023/11/16 06:08:49;;;;;;;10.67;2.23;;;;;;;;;;4929811;29;20039;-68
2023/11/16 06:11:15;;;;;;;14.40;2.13;;;;;;;;;;4930063;29;20035;-68
2023/11/16 06:13:40;;;;;;;13.80;2.07;;;;;;;;;;4927296;29;20031;-69
2023/11/16 06:16:05;;;;;;;7.73;3.20;;;;;;;;;;4945641;29;20031;-68
2023/11/16 06:18:31;;;;;;;17.67;4.37;;;;;;;;;;4946956;29;20027;-71
2023/11/16 06:20:56;;;;;;;10.30;3.40;;;;;;;;;;4944466;29;20118;-69
2023/11/16 06:23:21;;;;;;;16.50;3.87;;;;;;;;;;4948136;29;20030;-72
2023/11/16 06:25:47;;;;;;;13.50;2.67;;;;;;;;;;4948614;29;20165;-69
2023/11/16 06:28:12;;;;;;;15.07;3.03;;;;;;;;;;4946962;29;20023;-71
2023/11/16 06:30:39;;;;;;;13.67;2.30;;;;;;;;;;4948629;29;20039;-68
2023/11/16 06:33:04;;;;;;;13.13;2.67;;;;;;;;;;4942294;29;20026;-72
2023/11/16 06:35:30;;;;;;;15.10;3.47;;;;;;;;;;4936961;29;20094;-69
2023/11/16 06:37:55;;;;;;;10.10;3.47;;;;;;;;;;4948179;29;20110;-71
2023/11/16 06:40:20;;;;;;;9.33;2.40;;;;;;;;;;4947397;29;20038;-67
2023/11/16 06:42:47;;;;;;;11.87;2.60;;;;;;;;;;4945009;29;20087;-72
2023/11/16 06:45:12;;;;;;;13.90;2.53;;;;;;;;;;4942175;29;20630;-71
2023/11/16 06:47:37;;;;;;;10.23;2.60;;;;;;;;;;4920573;29;20055;-69
2023/11/16 06:50:06;;;;;;;12.37;2.80;;;;;;;;;;4920575;29;20023;-69
2023/11/16 06:52:32;;;;;;;12.63;3.23;;;;;;;;;;4946504;29;20373;-68
2023/11/16 06:54:59;;;;;;;9.80;2.63;;;;;;;;;;4927026;29;20037;-70
2023/11/16 06:57:26;;;;;;;10.03;2.60;;;;;;;;;;4923463;29;20023;-70
2023/11/16 06:59:55;;;;;;;10.77;2.67;;;;;;;;;;4928439;29;20094;-71
2023/11/16 07:02:21;;;;;;;14.13;2.70;;;;;;;;;;4928580;29;20024;-72
2023/11/16 07:04:47;;;;;;;17.97;3.20;;;;;;;;;;4928302;29;20040;-69
2023/11/16 07:07:12;;;;;;;14.93;3.20;;;;;;;;;;4929837;29;20476;-71
2023/11/16 07:09:38;;;;;;;11.70;2.70;;;;;;;;;;4931405;29;20027;-71
2023/11/16 07:12:04;;;;;;;16.57;3.57;;;;;;;;;;4929718;29;20035;-70
2023/11/16 07:14:29;;;;;;;16.63;3.70;;;;;;;;;;4929374;29;20020;-68
2023/11/16 07:16:55;;;;;;;14.63;3.07;;;;;;;;;;4944266;29;20035;-68
2023/11/16 07:19:20;;;;;;;13.23;3.37;;;;;;;;;;4945534;29;20075;-68
2023/11/16 07:21:46;;;;;;;13.40;3.90;;;;;;;;;;4942518;29;20042;-71
2023/11/16 07:24:11;;;;;;;15.67;3.40;;;;;;;;;;4947413;29;20089;-68
2023/11/16 07:26:37;;;;;;;11.60;3.40;;;;;;;;;;4940089;29;20785;-70
2023/11/16 07:29:02;;;;;;;11.90;3.00;;;;;;;;;;4947099;29;20038;-73
2023/11/16 07:31:28;;;;;;;16.53;3.23;;;;;;;;;;4946107;29;20122;-71
2023/11/16 07:33:54;;;;;;;20.30;4.23;;;;;;;;;;4927589;29;20485;-71
2023/11/16 07:36:24;;;;;;;13.93;3.70;;;;;;;;;;4918705;29;20401;-71
2023/11/16 07:38:52;;;;;;;12.60;2.20;;;;;;;;;;4943747;29;20483;-73
2023/11/16 07:41:17;;;;;;;15.63;2.23;;;;;;;;;;4946281;29;20039;-72
2023/11/16 07:43:43;;;;;;;13.93;2.73;;;;;;;;;;4948214;29;20019;-71
2023/11/16 07:46:08;;;;;;;9.47;2.70;;;;;;;;;;4944413;29;20015;-70
2023/11/16 07:48:34;;;;;;;10.27;2.40;;;;;;;;;;4947900;29;20082;-74
2023/11/16 07:51:00;;;;;;;9.50;2.20;;;;;;;;;;4941244;29;20401;-73
2023/11/16 07:53:27;;;;;;;10.77;2.07;;;;;;;;;;4923674;29;20035;-69
2023/11/16 07:55:53;;;;;;;12.77;1.90;;;;;;;;;;4925080;29;20312;-73
2023/11/16 07:58:18;;;;;;;8.57;1.60;;;;;;;;;;4927272;29;20043;-74
2023/11/16 08:00:55;;;;;;;4.80;1.30;;;;;;;;;;4931643;29;20094;-67
2023/11/16 08:06:07;;;;;;;6.40;1.17;;;;;;;;;;4928787;29;20406;-73
2023/11/16 08:08:32;;;;;;;7.50;1.13;;;;;;;;;;4927735;29;20400;-69
2023/11/16 08:10:58;;;;;;;7.23;1.40;;;;;;;;;;4928742;29;20083;-73
2023/11/16 08:13:23;;;;;;;4.13;1.10;;;;;;;;;;4928217;29;20028;-70
2023/11/16 08:15:52;;;;;;;4.50;1.10;;;;;;;;;;4928390;29;20032;-73
2023/11/16 08:18:21;;;;;;;7.33;1.20;;;;;;;;;;4928154;29;20028;-72
2023/11/16 08:20:46;;;;;;;8.17;1.40;;;;;;;;;;4928669;29;20536;-71
2023/11/16 08:23:12;;;;;;;5.67;1.07;;;;;;;;;;4928358;29;20111;-71
2023/11/16 08:25:38;;;;;;;5.40;1.57;;;;;;;;;;4928231;29;20031;-69
2023/11/16 08:28:05;;;;;;;7.73;1.47;;;;;;;;;;4928155;29;20030;-71
2023/11/16 08:30:31;;;;;;;6.53;1.40;;;;;;;;;;4928223;29;20109;-71
2023/11/16 08:32:56;;;;;;;9.83;1.80;;;;;;;;;;4942737;29;20019;-72
2023/11/16 08:35:23;;;;;;;6.37;1.50;;;;;;;;;;4930244;29;20039;-70
2023/11/16 08:37:48;;;;;;;8.40;1.33;;;;;;;;;;4940220;29;20140;-71
2023/11/16 08:40:18;;;;;;;6.23;1.30;;;;;;;;;;4939444;29;20099;-74
2023/11/16 08:42:43;;;;;;;6.83;1.30;;;;;;;;;;4941952;29;20618;-74
2023/11/16 08:45:17;;;;;;;6.17;1.30;;;;;;;;;;4929747;29;20055;-72
2023/11/16 08:47:43;;;;;;;4.90;1.40;;;;;;;;;;4927403;29;20027;-65
2023/11/16 08:50:12;;;;;;;8.97;1.50;;;;;;;;;;4929651;29;20030;-66
2023/11/16 08:52:38;;;;;;;6.30;1.40;;;;;;;;;;4916555;29;20556;-64
2023/11/16 08:55:03;;;;;;;12.30;1.83;;;;;;;;;;4932225;29;20035;-65
2023/11/16 08:57:28;;;;;;;6.93;1.63;;;;;;;;;;4923129;29;20445;-65
2023/11/16 09:00:25;;;;;;;6.47;1.50;;;;;;;;;;4924433;29;20319;-65
2023/11/16 09:02:45;;;;;;;6.50;1.67;;;;;;;;;;4923273;29;20048;-66
2023/11/16 09:05:10;;;;;;;6.77;1.50;;;;;;;;;;4924421;29;20087;-64
2023/11/16 09:07:37;;;;;;;10.37;2.07;;;;;;;;;;4913452;29;20035;-65
2023/11/16 09:10:05;;;;;;;6.67;1.70;;;;;;;;;;4920213;29;20489;-65
2023/11/16 09:12:31;;;;;;;7.80;1.80;;;;;;;;;;4937069;29;20111;-65
2023/11/16 09:14:56;;;;;;;9.00;1.60;;;;;;;;;;4935286;29;20453;-66
2023/11/16 09:17:23;;;;;;;5.97;1.50;;;;;;;;;;4924695;29;20361;-67
2023/11/16 09:19:50;;;;;;;9.20;1.60;;;;;;;;;;4926039;29;20024;-64
2023/11/16 09:22:17;;;;;;;7.77;1.90;;;;;;;;;;4921225;29;20626;-65
2023/11/16 09:24:44;;;;;;;5.17;1.53;;;;;;;;;;4930927;29;20484;-65
2023/11/16 09:27:10;;;;;;;8.00;1.47;;;;;;;;;;4926427;29;20035;-65
2023/11/16 09:29:38;;;;;;;7.57;1.67;;;;;;;;;;4928298;29;20020;-66
2023/11/16 09:32:05;;;;;;;5.73;1.40;;;;;;;;;;4929770;29;20479;-65
2023/11/16 09:34:30;;;;;;;10.37;1.57;;;;;;;;;;4935038;29;20027;-65
2023/11/16 09:36:59;;;;;;;5.67;1.30;;;;;;;;;;4939658;29;20023;-64
2023/11/16 09:39:25;;;;;;;6.37;1.43;;;;;;;;;;4934131;29;20540;-64
2023/11/16 09:41:51;;;;;;;5.43;1.20;;;;;;;;;;4934874;29;20059;-64
2023/11/16 09:44:17;;;;;;;8.83;1.40;;;;;;;;;;4929780;29;20019;-65
2023/11/16 09:46:47;;;;;;;8.67;1.90;;;;;;;;;;4933311;29;20481;-65
2023/11/16 09:49:16;;;;;;;10.70;1.60;;;;;;;;;;4944205;29;20526;-64
2023/11/16 09:51:43;;;;;;;11.10;1.90;;;;;;;;;;4928050;29;20386;-65
2023/11/16 09:54:09;;;;;;;4.97;1.40;;;;;;;;;;4930497;29;20385;-63
2023/11/16 09:56:36;;;;;;;4.80;1.47;;;;;;;;;;4932243;29;20039;-64
2023/11/16 09:59:06;;;;;;;3.90;1.37;;;;;;;;;;4938481;29;20035;-66
2023/11/16 10:01:37;;;;;;;7.07;1.30;;;;;;;;;;4931312;29;20104;-66
2023/11/16 10:04:07;;;;;;;7.40;1.58;;;;;;;;;;4928640;29;20556;-64
2023/11/16 10:06:33;;;;;;;7.90;1.60;;;;;;;;;;4930758;29;20027;-64
2023/11/16 10:09:03;;;;;;;5.50;1.60;;;;;;;;;;4932084;29;20023;-65
2023/11/16 10:11:31;;;;;;;10.13;1.90;;;;;;;;;;4936077;29;20409;-64
2023/11/16 10:13:56;;;;;;;6.17;1.53;;;;;;;;;;4938642;29;20506;-64
2023/11/16 10:16:25;;;;;;;7.73;1.53;;;;;;;;;;4929933;29;20031;-65
2023/11/16 10:18:58;;;;;;;4.97;1.50;;;;;;;;;;4924376;29;20035;-64
2023/11/16 10:21:24;;;;;;;5.53;1.50;;;;;;;;;;4927342;29;20020;-65
2023/11/16 10:23:51;;;;;;;5.90;1.50;;;;;;;;;;4940464;29;20031;-64
2023/11/16 10:26:19;;;;;;;7.10;1.67;;;;;;;;;;4934603;29;20184;-65
2023/11/16 10:28:49;;;;;;;7.97;1.70;;;;;;;;;;4927633;29;20023;-65
2023/11/16 10:31:15;;;;;;;6.07;1.80;;;;;;;;;;4932726;29;20024;-64
2023/11/16 10:33:45;;;;;;;9.17;2.07;;;;;;;;;;4927912;29;20031;-64
2023/11/16 10:36:11;;;;;;;6.77;1.43;;;;;;;;;;4936666;29;20058;-65
2023/11/16 10:38:36;;;;;;;11.87;1.83;;;;;;;;;;4920767;29;20511;-65
2023/11/16 10:41:03;;;;;;;4.67;1.20;;;;;;;;;;4936696;29;20059;-66
2023/11/16 10:43:28;;;;;;;4.63;1.50;;;;;;;;;;4937963;29;20535;-66
2023/11/16 10:46:05;;;;;;;4.43;1.00;;;;;;;;;;4931749;29;20031;-64
2023/11/16 10:48:30;;;;;;;4.80;1.30;;;;;;;;;;4926659;29;20090;-65
2023/11/16 10:50:58;;;;;;;4.53;1.37;;;;;;;;;;4931092;29;20027;-64
2023/11/16 10:53:24;;;;;;;3.40;1.20;;;;;;;;;;4923881;29;20114;-64
2023/11/16 10:55:50;;;;;;;3.47;1.23;;;;;;;;;;4926798;29;20107;-64
2023/11/16 10:58:20;;;;;;;5.37;1.10;;;;;;;;;;4936060;29;20031;-65
2023/11/16 11:00:47;;;;;;;5.93;1.47;;;;;;;;;;4937417;28;20031;-66
2023/11/16 11:03:13;;;;;;;4.43;1.20;;;;;;;;;;4930271;29;20040;-66
2023/11/16 11:05:48;;;;;;;6.27;1.10;;;;;;;;;;4932520;29;20181;-66
2023/11/16 11:08:17;;;;;;;5.80;1.00;;;;;;;;;;4926224;29;20019;-65
2023/11/16 11:10:44;;;;;;;3.80;1.30;;;;;;;;;;4933102;29;20031;-65
2023/11/16 11:13:11;;;;;;;5.23;1.40;;;;;;;;;;4927855;29;20300;-66
2023/11/16 11:15:36;;;;;;;2.53;1.10;;;;;;;;;;4931086;29;20599;-65
2023/11/16 11:18:04;;;;;;;3.50;1.10;;;;;;;;;;4929403;29;20354;-64
2023/11/16 11:20:44;;;;;;;6.57;1.40;;;;;;;;;;4935804;29;20126;-64
2023/11/16 11:23:19;;;;;;;4.33;1.10;;;;;;;;;;4921806;29;20032;-65
2023/11/16 11:25:45;;;;;;;6.73;0.90;;;;;;;;;;4925076;29;20039;-66
2023/11/16 11:28:11;;;;;;;4.10;0.93;;;;;;;;;;4926043;29;20031;-66
2023/11/16 11:30:47;;;;;;;12.50;2.17;;;;;;;;;;4916411;29;20030;-65
2023/11/16 11:33:14;;;;;;;5.67;1.20;;;;;;;;;;4924739;29;20308;-64
2023/11/16 11:35:51;;;;;;;5.67;2.07;;;;;;;;;;4931679;29;20032;-65
2023/11/16 11:38:26;;;;;;;3.53;1.20;;;;;;;;;;4921769;29;20090;-66
2023/11/16 11:40:55;;;;;;;4.90;1.40;;;;;;;;;;4933143;29;20039;-65
2023/11/16 11:43:21;;;;;;;5.33;1.30;;;;;;;;;;4924507;29;20035;-67
2023/11/16 11:45:47;;;;;;;9.43;1.20;;;;;;;;;;4934106;29;20098;-64
2023/11/16 11:48:12;;;;;;;4.83;1.10;;;;;;;;;;4927389;29;20421;-66
2023/11/16 11:50:38;;;;;;;4.00;1.03;;;;;;;;;;4931811;29;20024;-66
2023/11/16 11:53:05;;;;;;;3.53;0.90;;;;;;;;;;4920874;29;20035;-65
2023/11/16 11:55:30;;;;;;;5.03;1.00;;;;;;;;;;4933320;29;20075;-66
2023/11/16 11:57:56;;;;;;;5.00;1.00;;;;;;;;;;4922784;29;20091;-66
2023/11/16 12:00:22;;;;;;;2.53;0.90;;;;;;;;;;4929188;29;20035;-66
2023/11/16 12:02:48;;;;;;;7.80;1.53;;;;;;;;;;4928851;29;20051;-65
2023/11/16 12:05:15;;;;;;;5.97;1.07;;;;;;;;;;4921888;29;20043;-65
2023/11/16 12:07:40;;;;;;;7.23;1.20;;;;;;;;;;4934576;29;20039;-65
2023/11/16 12:10:05;;;;;;;4.83;1.20;;;;;;;;;;4928338;29;20401;-65
2023/11/16 12:12:35;;;;;;;3.43;1.00;;;;;;;;;;4920604;29;20388;-66
2023/11/16 12:15:02;;;;;;;5.30;1.10;;;;;;;;;;4926165;29;20425;-64
2023/11/16 12:17:27;;;;;;;2.43;0.83;;;;;;;;;;4925655;29;20031;-70
2023/11/16 12:19:53;;;;;;;3.77;0.90;;;;;;;;;;4928874;29;20035;-74
2023/11/16 12:22:20;;;;;;;3.50;0.90;;;;;;;;;;4932494;29;20114;-74
2023/11/16 12:24:48;;;;;;;13.00;1.60;;;;;;;;;;4921928;29;20028;-73
2023/11/16 12:27:14;;;;;;;5.53;1.90;;;;;;;;;;4934118;29;20063;-73
2023/11/16 12:29:43;;;;;;;9.60;1.20;;;;;;;;;;4923403;29;20028;-72
2023/11/16 12:32:08;;;;;;;4.67;1.20;;;;;;;;;;4924336;29;20496;-70
2023/11/16 12:34:34;;;;;;;10.80;1.30;;;;;;;;;;4923770;29;20082;-73
2023/11/16 12:37:01;;;;;;;6.63;1.20;;;;;;;;;;4933085;29;20488;-72
2023/11/16 12:39:26;;;;;;;5.23;1.17;;;;;;;;;;4921547;29;20027;-70
2023/11/16 12:41:55;;;;;;;7.83;1.80;;;;;;;;;;4932161;29;20063;-75
2023/11/16 12:44:24;;;;;;;4.40;1.00;;;;;;;;;;4923034;29;20527;-73
2023/11/16 12:46:49;;;;;;;7.20;1.43;;;;;;;;;;4927671;29;20279;-72
2023/11/16 12:49:15;;;;;;;5.13;1.77;;;;;;;;;;4927664;29;20042;-69
2023/11/16 12:51:41;;;;;;;10.93;1.40;;;;;;;;;;4931623;29;20043;-71
2023/11/16 12:54:06;;;;;;;7.27;1.13;;;;;;;;;;4911956;29;20533;-74
2023/11/16 12:56:32;;;;;;;6.10;1.00;;;;;;;;;;4931581;29;20043;-73
2023/11/16 12:58:58;;;;;;;11.30;1.73;;;;;;;;;;4921527;29;20556;-72
2023/11/16 13:01:24;;;;;;;5.37;0.90;;;;;;;;;;4923792;29;20579;-70
2023/11/16 13:03:49;;;;;;;4.43;0.90;;;;;;;;;;4915228;29;20035;-73
2023/11/16 13:06:14;;;;;;;6.33;1.00;;;;;;;;;;4929913;29;20064;-69
2023/11/16 13:08:40;;;;;;;8.23;1.10;;;;;;;;;;4927361;29;20035;-74
2023/11/16 13:11:37;;;;;;;4.93;1.00;;;;;;;;;;4925862;29;20024;-78
2023/11/16 13:14:02;;;;;;;3.20;0.83;;;;;;;;;;4911027;29;20039;-74
2023/11/16 13:16:27;;;;;;;2.63;0.73;;;;;;;;;;4921054;29;20036;-71
2023/11/16 13:18:54;;;;;;;6.00;0.90;;;;;;;;;;4918544;29;20040;-69
2023/11/16 13:21:19;;;;;;;4.63;0.93;;;;;;;;;;4925104;29;20031;-70
2023/11/16 13:23:47;;;;;;;7.63;1.00;;;;;;;;;;4926644;29;20035;-68
2023/11/16 13:26:14;;;;;;;4.50;1.43;;;;;;;;;;4933981;29;20511;-68
2023/11/16 13:28:39;;;;;;;4.07;1.10;;;;;;;;;;4917284;29;20020;-63
2023/11/16 13:31:05;;;;;;;7.93;1.20;;;;;;;;;;4926288;29;20333;-62
2023/11/16 13:33:31;;;;;;;5.03;1.20;;;;;;;;;;4925215;29;20479;-64
2023/11/16 13:35:56;;;;;;;3.60;1.20;;;;;;;;;;4925962;29;20031;-63
2023/11/16 13:38:22;;;;;;;6.40;1.20;;;;;;;;;;4917039;29;20068;-63
2023/11/16 13:40:47;;;;;;;6.70;1.23;;;;;;;;;;4924912;29;20031;-63
2023/11/16 13:43:13;;;;;;;8.10;1.30;;;;;;;;;;4930670;29;20059;-63
2023/11/16 13:45:38;;;;;;;7.90;1.67;;;;;;;;;;4928126;29;20040;-63
2023/11/16 13:48:04;;;;;;;4.67;1.30;;;;;;;;;;4928048;29;20122;-66
2023/11/16 13:50:29;;;;;;;5.50;1.50;;;;;;;;;;4926784;29;20290;-64
2023/11/16 13:52:54;;;;;;;7.97;2.63;;;;;;;;;;4923532;29;20031;-65
2023/11/16 13:55:20;;;;;;;5.30;1.70;;;;;;;;;;4925279;29;20039;-64
2023/11/16 13:57:45;;;;;;;4.87;1.60;;;;;;;;;;4933148;29;20035;-64
2023/11/16 14:00:11;;;;;;;5.13;1.40;;;;;;;;;;4910256;29;20130;-65
2023/11/16 14:02:42;;;;;;;7.87;1.80;;;;;;;;;;4922930;29;20046;-64
2023/11/16 14:05:10;;;;;;;5.30;2.15;;;;;;;;;;4925862;29;20499;-64
2023/11/16 14:07:36;;;;;;;6.00;2.10;;;;;;;;;;4928283;29;20047;-65
2023/11/16 14:10:03;;;;;;;7.77;2.43;;;;;;;;;;4922745;29;20015;-66
2023/11/16 14:12:28;;;;;;;10.03;2.97;;;;;;;;;;4930817;29;20471;-65
2023/11/16 14:14:53;;;;;;;8.57;2.80;;;;;;;;;;4920647;29;20107;-66
2023/11/16 14:17:19;;;;;;;6.40;2.60;;;;;;;;;;4928554;29;20089;-64
2023/11/16 14:19:44;;;;;;;8.10;2.40;;;;;;;;;;4928472;29;20027;-66
2023/11/16 14:22:10;;;;;;;7.87;2.60;;;;;;;;;;4926853;29;20459;-64
2023/11/16 14:24:38;;;;;;;8.50;3.20;;;;;;;;;;4925908;29;20292;-65
2023/11/16 14:27:04;;;;;;;7.30;3.13;;;;;;;;;;4933041;29;20032;-64
2023/11/16 14:29:29;;;;;;;13.07;3.47;;;;;;;;;;4930185;29;20268;-65
2023/11/16 14:31:55;;;;;;;13.03;3.17;;;;;;;;;;4926078;29;20046;-65
2023/11/16 14:34:20;;;;;;;7.67;2.80;;;;;;;;;;4930800;29;20130;-65
2023/11/16 14:36:46;;;;;;;10.50;3.07;;;;;;;;;;4929726;29;20091;-65